sensor_id;sensor_type;location;lat;lon;timestamp;pressure;altitude;pressure_sealevel;temperature;humidity
64933;BME280;51446;53.850;10.662;2022-09-09T00:02:01;100755.53;;;14.51;100.00
64933;BME280;51446;53.850;10.662;2022-09-09T00:04:38;100752.03;;;14.55;100.00
64933;BME280;51446;53.850;10.662;2022-09-09T00:07:25;100744.97;;;14.65;100.00
64933;BME280;51446;53.850;10.662;2022-09-09T00:10:16;100747.63;;;14.51;100.00
64933;BME280;51446;53.850;10.662;2022-09-09T00:21:12;100744.09;;;14.69;100.00
64933;BME280;51446;53.850;10.662;2022-09-09T00:23:51;100742.31;;;14.60;100.00
64933;BME280;51446;53.850;10.662;2022-09-09T00:26:42;100743.22;;;14.71;100.00
64933;BME280;51446;53.850;10.662;2022-09-09T00:29:20;100745.00;;;14.69;100.00
64933;BME280;51446;53.850;10.662;2022-09-09T00:31:47;100740.63;;;14.62;100.00
64933;BME280;51446;53.850;10.662;2022-09-09T00:34:16;100743.22;;;14.71;100.00
64933;BME280;51446;53.850;10.662;2022-09-09T00:36:45;100743.22;;;14.68;100.00
64933;BME280;51446;53.850;10.662;2022-09-09T00:39:33;100739.72;;;14.69;100.00
64933;BME280;51446;53.850;10.662;2022-09-09T00:42:18;100738.81;;;14.60;100.00
64933;BME280;51446;53.850;10.662;2022-09-09T00:47:53;100734.44;;;14.68;100.00
64933;BME280;51446;53.850;10.662;2022-09-09T00:58:26;100725.63;;;14.67;100.00
64933;BME280;51446;53.850;10.662;2022-09-09T01:00:57;100723.88;;;14.68;100.00
64933;BME280;51446;53.850;10.662;2022-09-09T01:06:15;100721.25;;;14.69;100.00
64933;BME280;51446;53.850;10.662;2022-09-09T01:09:02;100726.50;;;14.60;100.00
64933;BME280;51446;53.850;10.662;2022-09-09T01:17:05;100732.66;;;14.70;100.00
64933;BME280;51446;53.850;10.662;2022-09-09T01:19:45;100736.19;;;14.72;100.00
64933;BME280;51446;53.850;10.662;2022-09-09T01:22:44;100729.16;;;14.68;100.00
64933;BME280;51446;53.850;10.662;2022-09-09T01:25:28;100737.06;;;14.74;100.00
64933;BME280;51446;53.850;10.662;2022-09-09T01:28:08;100732.69;;;14.65;100.00
64933;BME280;51446;53.850;10.662;2022-09-09T01:30:38;100734.41;;;14.55;100.00
64933;BME280;51446;53.850;10.662;2022-09-09T01:33:03;100733.53;;;14.46;100.00
64933;BME280;51446;53.850;10.662;2022-09-09T01:35:52;100725.63;;;14.43;100.00
64933;BME280;51446;53.850;10.662;2022-09-09T01:38:22;100730.91;;;14.44;100.00
64933;BME280;51446;53.850;10.662;2022-09-09T01:40:49;100723.00;;;14.47;100.00
64933;BME280;51446;53.850;10.662;2022-09-09T01:43:17;100731.78;;;14.51;100.00
64933;BME280;51446;53.850;10.662;2022-09-09T01:45:44;100732.69;;;14.47;100.00
64933;BME280;51446;53.850;10.662;2022-09-09T01:48:10;100732.66;;;14.50;100.00
64933;BME280;51446;53.850;10.662;2022-09-09T01:50:36;100722.09;;;14.51;100.00
64933;BME280;51446;53.850;10.662;2022-09-09T01:53:02;100723.88;;;14.45;100.00
64933;BME280;51446;53.850;10.662;2022-09-09T01:55:41;100720.34;;;14.44;100.00
64933;BME280;51446;53.850;10.662;2022-09-09T01:58:31;100719.50;;;14.42;100.00
64933;BME280;51446;53.850;10.662;2022-09-09T02:01:10;100720.38;;;14.39;100.00
64933;BME280;51446;53.850;10.662;2022-09-09T02:03:44;100727.41;;;14.40;100.00
64933;BME280;51446;53.850;10.662;2022-09-09T02:08:49;100730.06;;;14.40;100.00
64933;BME280;51446;53.850;10.662;2022-09-09T02:13:44;100727.38;;;14.50;100.00
64933;BME280;51446;53.850;10.662;2022-09-09T02:16:19;100727.38;;;14.54;100.00
64933;BME280;51446;53.850;10.662;2022-09-09T02:19:09;100735.28;;;14.59;100.00
64933;BME280;51446;53.850;10.662;2022-09-09T02:21:39;100742.34;;;14.62;100.00
64933;BME280;51446;53.850;10.662;2022-09-09T02:24:07;100739.72;;;14.71;100.00
64933;BME280;51446;53.850;10.662;2022-09-09T02:26:38;100733.56;;;14.63;100.00
64933;BME280;51446;53.850;10.662;2022-09-09T02:29:08;100744.97;;;14.65;100.00
64933;BME280;51446;53.850;10.662;2022-09-09T02:31:36;100742.34;;;14.58;100.00
64933;BME280;51446;53.850;10.662;2022-09-09T02:34:03;100747.59;;;14.60;100.00
64933;BME280;51446;53.850;10.662;2022-09-09T02:36:32;100739.72;;;14.52;100.00
64933;BME280;51446;53.850;10.662;2022-09-09T02:38:59;100741.47;;;14.63;100.00
64933;BME280;51446;53.850;10.662;2022-09-09T02:41:34;100739.69;;;14.55;100.00
64933;BME280;51446;53.850;10.662;2022-09-09T02:44:00;100737.06;;;14.49;100.00
64933;BME280;51446;53.850;10.662;2022-09-09T02:49:19;100739.72;;;14.71;100.00
64933;BME280;51446;53.850;10.662;2022-09-09T02:52:05;100735.31;;;14.70;100.00
64933;BME280;51446;53.850;10.662;2022-09-09T02:54:33;100738.81;;;14.81;100.00
64933;BME280;51446;53.850;10.662;2022-09-09T02:57:30;100743.22;;;14.74;100.00
64933;BME280;51446;53.850;10.662;2022-09-09T02:59:58;100734.41;;;14.77;100.00
64933;BME280;51446;53.850;10.662;2022-09-09T03:02:24;100734.44;;;14.71;100.00
64933;BME280;51446;53.850;10.662;2022-09-09T03:04:50;100736.19;;;14.72;100.00
64933;BME280;51446;53.850;10.662;2022-09-09T03:07:17;100741.47;;;14.75;100.00
64933;BME280;51446;53.850;10.662;2022-09-09T03:09:43;100737.97;;;14.65;100.00
64933;BME280;51446;53.850;10.662;2022-09-09T03:12:09;100740.59;;;14.70;100.00
64933;BME280;51446;53.850;10.662;2022-09-09T03:14:36;100740.59;;;14.70;100.00
64933;BME280;51446;53.850;10.662;2022-09-09T03:17:01;100753.75;;;14.79;100.00
64933;BME280;51446;53.850;10.662;2022-09-09T03:19:27;100750.25;;;14.65;100.00
64933;BME280;51446;53.850;10.662;2022-09-09T03:21:53;100744.13;;;14.63;100.00
64933;BME280;51446;53.850;10.662;2022-09-09T03:24:18;100744.09;;;14.58;100.00
64933;BME280;51446;53.850;10.662;2022-09-09T03:26:44;100757.28;;;14.58;100.00
64933;BME280;51446;53.850;10.662;2022-09-09T03:29:10;100755.53;;;14.66;100.00
64933;BME280;51446;53.850;10.662;2022-09-09T03:31:37;100753.78;;;14.61;100.00
64933;BME280;51446;53.850;10.662;2022-09-09T03:34:02;100756.41;;;14.78;100.00
64933;BME280;51446;53.850;10.662;2022-09-09T03:36:28;100756.44;;;14.65;100.00
64933;BME280;51446;53.850;10.662;2022-09-09T03:38:54;100762.59;;;14.63;100.00
64933;BME280;51446;53.850;10.662;2022-09-09T03:41:21;100759.97;;;14.63;100.00
64933;BME280;51446;53.850;10.662;2022-09-09T03:43:49;100759.06;;;14.61;100.00
64933;BME280;51446;53.850;10.662;2022-09-09T03:46:15;100763.44;;;14.55;100.00
64933;BME280;51446;53.850;10.662;2022-09-09T03:48:40;100759.94;;;14.58;100.00
64933;BME280;51446;53.850;10.662;2022-09-09T03:51:05;100757.28;;;14.47;100.00
64933;BME280;51446;53.850;10.662;2022-09-09T03:53:30;100748.53;;;14.40;100.00
64933;BME280;51446;53.850;10.662;2022-09-09T03:55:57;100752.03;;;14.24;100.00
64933;BME280;51446;53.850;10.662;2022-09-09T03:58:24;100743.25;;;14.19;100.00
64933;BME280;51446;53.850;10.662;2022-09-09T04:01:03;100743.22;;;14.27;100.00
64933;BME280;51446;53.850;10.662;2022-09-09T04:03:30;100743.22;;;14.25;100.00
64933;BME280;51446;53.850;10.662;2022-09-09T04:05:58;100746.75;;;14.18;100.00
64933;BME280;51446;53.850;10.662;2022-09-09T04:08:25;100746.75;;;14.19;100.00
64933;BME280;51446;53.850;10.662;2022-09-09T04:10:51;100753.78;;;14.20;100.00
64933;BME280;51446;53.850;10.662;2022-09-09T04:13:17;100752.88;;;14.21;100.00
64933;BME280;51446;53.850;10.662;2022-09-09T04:15:44;100753.78;;;14.28;100.00
64933;BME280;51446;53.850;10.662;2022-09-09T04:18:10;100749.38;;;14.21;100.00
64933;BME280;51446;53.850;10.662;2022-09-09T04:20:36;100766.06;;;14.25;100.00
64933;BME280;51446;53.850;10.662;2022-09-09T04:23:02;100759.03;;;14.14;100.00
64933;BME280;51446;53.850;10.662;2022-09-09T04:25:27;100760.81;;;14.15;100.00
64933;BME280;51446;53.850;10.662;2022-09-09T04:27:56;100760.81;;;14.26;100.00
64933;BME280;51446;53.850;10.662;2022-09-09T04:30:23;100768.75;;;14.31;100.00
64933;BME280;51446;53.850;10.662;2022-09-09T04:32:49;100765.19;;;14.26;100.00
64933;BME280;51446;53.850;10.662;2022-09-09T04:35:14;100760.81;;;14.21;100.00
64933;BME280;51446;53.850;10.662;2022-09-09T04:37:40;100764.31;;;14.31;100.00
64933;BME280;51446;53.850;10.662;2022-09-09T04:40:06;100772.25;;;14.28;100.00
64933;BME280;51446;53.850;10.662;2022-09-09T04:42:35;100767.84;;;14.26;100.00
64933;BME280;51446;53.850;10.662;2022-09-09T04:45:01;100771.38;;;14.26;100.00
64933;BME280;51446;53.850;10.662;2022-09-09T04:47:26;100767.84;;;14.22;100.00
64933;BME280;51446;53.850;10.662;2022-09-09T04:49:51;100767.84;;;14.21;100.00
64933;BME280;51446;53.850;10.662;2022-09-09T04:52:19;100766.94;;;14.11;100.00
64933;BME280;51446;53.850;10.662;2022-09-09T04:54:44;100771.34;;;14.18;100.00
64933;BME280;51446;53.850;10.662;2022-09-09T04:57:10;100768.72;;;14.04;100.00
64933;BME280;51446;53.850;10.662;2022-09-09T04:59:36;100776.63;;;14.09;100.00
64933;BME280;51446;53.850;10.662;2022-09-09T05:02:02;100783.63;;;14.10;100.00
64933;BME280;51446;53.850;10.662;2022-09-09T05:04:29;100781.03;;;14.15;100.00
64933;BME280;51446;53.850;10.662;2022-09-09T05:06:54;100784.53;;;14.21;100.00
64933;BME280;51446;53.850;10.662;2022-09-09T05:09:19;100785.41;;;14.14;100.00
64933;BME280;51446;53.850;10.662;2022-09-09T05:11:44;100786.31;;;14.30;100.00
64933;BME280;51446;53.850;10.662;2022-09-09T05:14:09;100783.66;;;14.22;100.00
64933;BME280;51446;53.850;10.662;2022-09-09T05:16:37;100798.63;;;14.39;100.00
64933;BME280;51446;53.850;10.662;2022-09-09T05:19:02;100793.31;;;14.17;100.00
64933;BME280;51446;53.850;10.662;2022-09-09T05:21:28;100791.59;;;14.26;100.00
64933;BME280;51446;53.850;10.662;2022-09-09T05:23:55;100803.03;;;14.29;100.00
64933;BME280;51446;53.850;10.662;2022-09-09T05:26:22;100799.53;;;14.33;100.00
64933;BME280;51446;53.850;10.662;2022-09-09T05:28:48;100797.75;;;14.35;100.00
64933;BME280;51446;53.850;10.662;2022-09-09T05:31:14;100788.97;;;14.44;100.00
64933;BME280;51446;53.850;10.662;2022-09-09T05:33:43;100789.81;;;14.43;100.00
64933;BME280;51446;53.850;10.662;2022-09-09T05:36:26;100791.56;;;14.29;100.00
64933;BME280;51446;53.850;10.662;2022-09-09T05:38:51;100795.13;;;14.28;100.00
64933;BME280;51446;53.850;10.662;2022-09-09T05:41:19;100793.34;;;14.25;100.00
64933;BME280;51446;53.850;10.662;2022-09-09T05:43:45;100809.19;;;14.42;100.00
64933;BME280;51446;53.850;10.662;2022-09-09T05:46:18;100803.91;;;14.37;100.00
64933;BME280;51446;53.850;10.662;2022-09-09T05:48:45;100804.81;;;14.53;100.00
64933;BME280;51446;53.850;10.662;2022-09-09T05:51:13;100810.06;;;14.47;100.00
64933;BME280;51446;53.850;10.662;2022-09-09T05:53:41;100810.06;;;14.50;100.00
64933;BME280;51446;53.850;10.662;2022-09-09T05:56:18;100804.78;;;14.60;100.00
64933;BME280;51446;53.850;10.662;2022-09-09T05:58:44;100804.81;;;14.58;100.00
64933;BME280;51446;53.850;10.662;2022-09-09T06:01:17;100799.53;;;14.70;100.00
64933;BME280;51446;53.850;10.662;2022-09-09T06:03:44;100814.50;;;14.87;100.00
64933;BME280;51446;53.850;10.662;2022-09-09T06:06:12;100818.03;;;14.78;100.00
64933;BME280;51446;53.850;10.662;2022-09-09T06:08:39;100814.47;;;14.81;100.00
64933;BME280;51446;53.850;10.662;2022-09-09T06:11:08;100807.44;;;14.73;100.00
64933;BME280;51446;53.850;10.662;2022-09-09T06:13:34;100811.88;;;14.82;100.00
64933;BME280;51446;53.850;10.662;2022-09-09T06:16:00;100822.41;;;14.67;100.00
64933;BME280;51446;53.850;10.662;2022-09-09T06:18:25;100828.56;;;14.81;100.00
64933;BME280;51446;53.850;10.662;2022-09-09T06:20:59;100829.47;;;14.74;100.00
64933;BME280;51446;53.850;10.662;2022-09-09T06:23:26;100826.78;;;14.88;100.00
64933;BME280;51446;53.850;10.662;2022-09-09T06:26:00;100832.09;;;14.77;100.00
64933;BME280;51446;53.850;10.662;2022-09-09T06:28:25;100824.16;;;14.80;100.00
64933;BME280;51446;53.850;10.662;2022-09-09T06:30:59;100832.09;;;14.82;100.00
64933;BME280;51446;53.850;10.662;2022-09-09T06:33:25;100835.59;;;14.98;100.00
64933;BME280;51446;53.850;10.662;2022-09-09T06:35:54;100832.06;;;14.99;100.00
64933;BME280;51446;53.850;10.662;2022-09-09T06:38:20;100839.97;;;15.09;100.00
64933;BME280;51446;53.850;10.662;2022-09-09T06:40:53;100837.34;;;15.14;99.57
64933;BME280;51446;53.850;10.662;2022-09-09T06:43:20;100833.81;;;15.11;100.00
64933;BME280;51446;53.850;10.662;2022-09-09T06:46:03;100839.09;;;15.18;99.56
64933;BME280;51446;53.850;10.662;2022-09-09T06:48:29;100847.88;;;15.17;98.61
64933;BME280;51446;53.850;10.662;2022-09-09T06:51:08;100820.59;;;15.20;98.35
64933;BME280;51446;53.850;10.662;2022-09-09T06:53:35;100841.72;;;15.18;98.21
64933;BME280;51446;53.850;10.662;2022-09-09T06:58:45;100840.84;;;15.15;99.14
64933;BME280;51446;53.850;10.662;2022-09-09T07:01:13;100846.13;;;15.12;98.64
64933;BME280;51446;53.850;10.662;2022-09-09T07:03:39;100843.53;;;15.04;99.03
64933;BME280;51446;53.850;10.662;2022-09-09T07:06:05;100849.66;;;14.94;100.00
64933;BME280;51446;53.850;10.662;2022-09-09T07:08:31;100844.44;;;14.75;100.00
64933;BME280;51446;53.850;10.662;2022-09-09T07:11:04;100841.75;;;14.90;100.00
64933;BME280;51446;53.850;10.662;2022-09-09T07:13:30;100847.03;;;15.06;99.82
64933;BME280;51446;53.850;10.662;2022-09-09T07:16:03;100854.00;;;15.38;98.00
64933;BME280;51446;53.850;10.662;2022-09-09T07:18:29;100851.88;;;16.23;95.72
64933;BME280;51446;53.850;10.662;2022-09-09T07:20:55;100843.94;;;17.30;87.97
64933;BME280;51446;53.850;10.662;2022-09-09T07:23:22;100846.16;;;17.66;81.87
64933;BME280;51446;53.850;10.662;2022-09-09T07:25:48;100847.66;;;17.12;83.56
64933;BME280;51446;53.850;10.662;2022-09-09T07:28:14;100852.53;;;16.55;86.37
64933;BME280;51446;53.850;10.662;2022-09-09T07:30:39;100849.19;;;16.33;88.97
64933;BME280;51446;53.850;10.662;2022-09-09T07:33:05;100848.44;;;16.10;90.47
64933;BME280;51446;53.850;10.662;2022-09-09T07:35:30;100852.75;;;16.25;91.89
64933;BME280;51446;53.850;10.662;2022-09-09T07:37:55;100855.13;;;16.65;91.03
64933;BME280;51446;53.850;10.662;2022-09-09T07:40:21;100856.72;;;16.83;88.06
64933;BME280;51446;53.850;10.662;2022-09-09T07:42:47;100854.59;;;17.27;86.17
64933;BME280;51446;53.850;10.662;2022-09-09T07:45:13;100849.72;;;18.32;79.62
64933;BME280;51446;53.850;10.662;2022-09-09T07:47:39;100855.84;;;20.27;71.95
64933;BME280;51446;53.850;10.662;2022-09-09T07:50:06;100846.34;;;21.88;65.50
64933;BME280;51446;53.850;10.662;2022-09-09T07:52:33;100853.41;;;23.01;59.56
64933;BME280;51446;53.850;10.662;2022-09-09T07:54:58;100850.78;;;22.17;61.06
64933;BME280;51446;53.850;10.662;2022-09-09T07:57:24;100862.00;;;21.38;65.76
64933;BME280;51446;53.850;10.662;2022-09-09T07:59:50;100853.38;;;22.76;60.14
64933;BME280;51446;53.850;10.662;2022-09-09T08:02:15;100854.44;;;22.43;61.09
64933;BME280;51446;53.850;10.662;2022-09-09T08:04:41;100853.00;;;23.38;58.16
64933;BME280;51446;53.850;10.662;2022-09-09T08:07:06;100845.56;;;24.40;54.05
64933;BME280;51446;53.850;10.662;2022-09-09T08:09:31;100846.34;;;24.44;54.25
64933;BME280;51446;53.850;10.662;2022-09-09T08:11:58;100845.75;;;24.13;53.83
64933;BME280;51446;53.850;10.662;2022-09-09T08:14:24;100855.66;;;22.03;58.81
64933;BME280;51446;53.850;10.662;2022-09-09T08:16:50;100858.81;;;20.53;65.36
64933;BME280;51446;53.850;10.662;2022-09-09T08:19:16;100868.44;;;19.79;69.04
64933;BME280;51446;53.850;10.662;2022-09-09T08:21:42;100868.81;;;19.58;71.37
64933;BME280;51446;53.850;10.662;2022-09-09T08:24:09;100867.91;;;19.59;71.85
64933;BME280;51446;53.850;10.662;2022-09-09T08:26:41;100860.50;;;19.32;72.74
64933;BME280;51446;53.850;10.662;2022-09-09T08:29:08;100865.66;;;19.39;72.95
64933;BME280;51446;53.850;10.662;2022-09-09T08:31:37;100867.25;;;19.00;72.68
64933;BME280;51446;53.850;10.662;2022-09-09T08:34:04;100871.31;;;18.66;75.26
64933;BME280;51446;53.850;10.662;2022-09-09T08:36:32;100875.22;;;19.00;75.67
64933;BME280;51446;53.850;10.662;2022-09-09T08:39:01;100874.44;;;19.43;73.00
64933;BME280;51446;53.850;10.662;2022-09-09T08:49:53;100883.19;;;18.42;76.02
64933;BME280;51446;53.850;10.662;2022-09-09T08:52:26;100887.66;;;18.42;77.31
64933;BME280;51446;53.850;10.662;2022-09-09T08:54:56;100888.06;;;18.12;78.35
64933;BME280;51446;53.850;10.662;2022-09-09T08:57:26;100887.88;;;18.26;78.36
64933;BME280;51446;53.850;10.662;2022-09-09T08:59:54;100895.72;;;18.35;79.05
64933;BME280;51446;53.850;10.662;2022-09-09T09:02:28;100901.78;;;18.45;77.55
64933;BME280;51446;53.850;10.662;2022-09-09T09:08:13;100900.44;;;18.72;76.62
64933;BME280;51446;53.850;10.662;2022-09-09T09:10:50;100904.19;;;18.61;75.83
64933;BME280;51446;53.850;10.662;2022-09-09T09:13:27;100899.84;;;18.53;76.25
64933;BME280;51446;53.850;10.662;2022-09-09T09:16:00;100900.13;;;18.96;75.71
64933;BME280;51446;53.850;10.662;2022-09-09T09:18:27;100894.44;;;19.16;73.56
64933;BME280;51446;53.850;10.662;2022-09-09T09:20:58;100894.81;;;18.96;72.03
64933;BME280;51446;53.850;10.662;2022-09-09T09:23:31;100898.00;;;19.16;72.64
64933;BME280;51446;53.850;10.662;2022-09-09T09:26:00;100894.88;;;19.41;73.75
64933;BME280;51446;53.850;10.662;2022-09-09T09:28:29;100884.25;;;19.86;70.90
64933;BME280;51446;53.850;10.662;2022-09-09T09:30:59;100888.34;;;20.03;70.11
64933;BME280;51446;53.850;10.662;2022-09-09T09:36:09;100891.31;;;19.87;69.90
64933;BME280;51446;53.850;10.662;2022-09-09T09:38:35;100889.78;;;19.75;70.62
64933;BME280;51446;53.850;10.662;2022-09-09T09:41:01;100887.94;;;19.79;71.86
64933;BME280;51446;53.850;10.662;2022-09-09T09:43:35;100883.78;;;20.86;68.41
64933;BME280;51446;53.850;10.662;2022-09-09T09:46:05;100879.69;;;21.40;64.63
64933;BME280;51446;53.850;10.662;2022-09-09T09:48:31;100889.25;;;21.14;65.91
64933;BME280;51446;53.850;10.662;2022-09-09T09:51:06;100887.75;;;20.68;67.47
64933;BME280;51446;53.850;10.662;2022-09-09T09:53:36;100896.34;;;20.42;68.46
64933;BME280;51446;53.850;10.662;2022-09-09T09:56:11;100896.97;;;21.60;65.96
64933;BME280;51446;53.850;10.662;2022-09-09T10:01:25;100894.22;;;23.06;60.15
64933;BME280;51446;53.850;10.662;2022-09-09T10:03:55;100888.75;;;22.84;60.96
64933;BME280;51446;53.850;10.662;2022-09-09T10:06:36;100890.41;;;22.88;59.88
64933;BME280;51446;53.850;10.662;2022-09-09T10:09:04;100898.50;;;22.58;60.06
64933;BME280;51446;53.850;10.662;2022-09-09T10:11:36;100887.16;;;22.51;59.15
64933;BME280;51446;53.850;10.662;2022-09-09T10:14:27;100883.31;;;22.60;60.97
64933;BME280;51446;53.850;10.662;2022-09-09T10:20:13;100894.84;;;22.03;62.13
64933;BME280;51446;53.850;10.662;2022-09-09T10:22:47;100891.38;;;21.99;62.91
64933;BME280;51446;53.850;10.662;2022-09-09T10:25:33;100890.94;;;21.85;62.24
64933;BME280;51446;53.850;10.662;2022-09-09T10:31:21;100900.50;;;20.91;66.85
64933;BME280;51446;53.850;10.662;2022-09-09T10:33:56;100901.53;;;20.48;67.26
64933;BME280;51446;53.850;10.662;2022-09-09T10:36:27;100891.09;;;20.39;69.78
64933;BME280;51446;53.850;10.662;2022-09-09T10:39:03;100896.13;;;21.58;64.48
64933;BME280;51446;53.850;10.662;2022-09-09T10:41:44;100899.94;;;21.47;63.55
64933;BME280;51446;53.850;10.662;2022-09-09T10:44:34;100895.03;;;21.96;62.80
64933;BME280;51446;53.850;10.662;2022-09-09T10:55:07;100890.88;;;26.31;50.00
64933;BME280;51446;53.850;10.662;2022-09-09T11:00:18;100905.28;;;26.11;47.30
64933;BME280;51446;53.850;10.662;2022-09-09T11:02:48;100897.84;;;26.36;46.90
64933;BME280;51446;53.850;10.662;2022-09-09T11:05:28;100898.19;;;27.03;47.77
64933;BME280;51446;53.850;10.662;2022-09-09T11:08:05;100884.81;;;28.03;45.09
64933;BME280;51446;53.850;10.662;2022-09-09T11:10:40;100890.38;;;28.32;41.83
64933;BME280;51446;53.850;10.662;2022-09-09T11:13:42;100888.66;;;27.30;43.61
64933;BME280;51446;53.850;10.662;2022-09-09T11:16:17;100886.34;;;26.88;45.47
64933;BME280;51446;53.850;10.662;2022-09-09T11:18:46;100887.28;;;26.69;44.46
64933;BME280;51446;53.850;10.662;2022-09-09T11:21:48;100890.25;;;26.63;45.80
64933;BME280;51446;53.850;10.662;2022-09-09T11:24:25;100887.00;;;26.75;44.85
64933;BME280;51446;53.850;10.662;2022-09-09T11:27:08;100887.94;;;27.27;44.53
64933;BME280;51446;53.850;10.662;2022-09-09T11:30:01;100890.78;;;27.24;42.50
64933;BME280;51446;53.850;10.662;2022-09-09T11:40:41;100892.38;;;27.10;44.38
64933;BME280;51446;53.850;10.662;2022-09-09T11:45:53;100892.78;;;27.20;43.69
64933;BME280;51446;53.850;10.662;2022-09-09T11:48:25;100904.25;;;27.06;44.96
64933;BME280;51446;53.850;10.662;2022-09-09T11:51:24;100895.69;;;26.80;46.49
64933;BME280;51446;53.850;10.662;2022-09-09T11:53:53;100892.38;;;27.28;45.51
64933;BME280;51446;53.850;10.662;2022-09-09T11:56:41;100904.25;;;27.24;44.46
64933;BME280;51446;53.850;10.662;2022-09-09T11:59:26;100905.72;;;24.99;49.38
64933;BME280;51446;53.850;10.662;2022-09-09T12:07:25;100897.97;;;23.02;54.82
64933;BME280;51446;53.850;10.662;2022-09-09T12:09:58;100889.88;;;24.27;52.39
64933;BME280;51446;53.850;10.662;2022-09-09T12:12:31;100891.19;;;24.62;50.97
64933;BME280;51446;53.850;10.662;2022-09-09T12:17:44;100892.50;;;25.37;49.92
64933;BME280;51446;53.850;10.662;2022-09-09T12:20:35;100893.94;;;25.03;50.53
64933;BME280;51446;53.850;10.662;2022-09-09T12:23:30;100897.81;;;25.39;48.42
64933;BME280;51446;53.850;10.662;2022-09-09T12:31:55;100905.59;;;21.99;58.24
64933;BME280;51446;53.850;10.662;2022-09-09T12:34:11;100902.75;;;22.35;56.70
64933;BME280;51446;53.850;10.662;2022-09-09T12:36:40;100897.09;;;23.28;54.41
64933;BME280;51446;53.850;10.662;2022-09-09T12:39:16;100900.16;;;23.92;52.45
64933;BME280;51446;53.850;10.662;2022-09-09T12:41:51;100899.56;;;24.07;50.70
64933;BME280;51446;53.850;10.662;2022-09-09T12:44:21;100896.84;;;23.34;51.22
64933;BME280;51446;53.850;10.662;2022-09-09T12:46:46;100897.78;;;22.80;52.46
64933;BME280;51446;53.850;10.662;2022-09-09T12:49:35;100898.06;;;22.72;54.22
64933;BME280;51446;53.850;10.662;2022-09-09T12:52:08;100894.41;;;22.16;54.76
64933;BME280;51446;53.850;10.662;2022-09-09T12:54:44;100886.41;;;22.75;54.86
64933;BME280;51446;53.850;10.662;2022-09-09T12:57:12;100886.81;;;23.16;56.34
64933;BME280;51446;53.850;10.662;2022-09-09T12:59:41;100879.53;;;22.93;56.88
64933;BME280;51446;53.850;10.662;2022-09-09T13:02:18;100886.91;;;22.59;55.02
64933;BME280;51446;53.850;10.662;2022-09-09T13:04:43;100871.44;;;22.11;56.71
64933;BME280;51446;53.850;10.662;2022-09-09T13:07:10;100877.47;;;21.88;57.41
64933;BME280;51446;53.850;10.662;2022-09-09T13:09:37;100883.13;;;22.07;56.44
64933;BME280;51446;53.850;10.662;2022-09-09T13:12:03;100879.25;;;21.89;56.52
64933;BME280;51446;53.850;10.662;2022-09-09T13:14:34;100875.72;;;21.57;57.79
64933;BME280;51446;53.850;10.662;2022-09-09T13:17:04;100880.06;;;21.26;59.17
64933;BME280;51446;53.850;10.662;2022-09-09T13:19:34;100876.41;;;21.29;60.27
64933;BME280;51446;53.850;10.662;2022-09-09T13:22:11;100877.91;;;21.41;60.15
64933;BME280;51446;53.850;10.662;2022-09-09T13:24:38;100879.16;;;21.60;59.27
64933;BME280;51446;53.850;10.662;2022-09-09T13:27:19;100880.94;;;21.91;58.58
64933;BME280;51446;53.850;10.662;2022-09-09T13:29:53;100883.78;;;21.85;58.15
64933;BME280;51446;53.850;10.662;2022-09-09T13:32:19;100885.91;;;21.74;58.28
64933;BME280;51446;53.850;10.662;2022-09-09T13:34:55;100883.19;;;21.75;58.49
64933;BME280;51446;53.850;10.662;2022-09-09T13:37:33;100895.13;;;21.62;57.68
64933;BME280;51446;53.850;10.662;2022-09-09T13:40:00;100894.47;;;21.54;57.09
64933;BME280;51446;53.850;10.662;2022-09-09T13:42:31;100881.25;;;21.47;57.05
64933;BME280;51446;53.850;10.662;2022-09-09T13:44:58;100887.44;;;21.49;58.11
64933;BME280;51446;53.850;10.662;2022-09-09T13:47:35;100890.63;;;21.31;57.57
64933;BME280;51446;53.850;10.662;2022-09-09T13:50:21;100891.22;;;21.08;58.29
64933;BME280;51446;53.850;10.662;2022-09-09T13:52:49;100893.06;;;21.04;58.76
64933;BME280;51446;53.850;10.662;2022-09-09T13:55:17;100899.00;;;20.81;59.06
64933;BME280;51446;53.850;10.662;2022-09-09T13:57:53;100892.47;;;20.55;59.83
64933;BME280;51446;53.850;10.662;2022-09-09T14:00:20;100890.78;;;20.51;60.61
64933;BME280;51446;53.850;10.662;2022-09-09T14:02:46;100897.13;;;20.47;61.44
64933;BME280;51446;53.850;10.662;2022-09-09T14:05:12;100893.09;;;20.29;62.29
64933;BME280;51446;53.850;10.662;2022-09-09T14:07:38;100897.09;;;20.09;62.61
64933;BME280;51446;53.850;10.662;2022-09-09T14:10:06;100893.72;;;20.01;63.26
64933;BME280;51446;53.850;10.662;2022-09-09T14:12:31;100900.88;;;19.98;63.59
64933;BME280;51446;53.850;10.662;2022-09-09T14:14:56;100891.22;;;19.92;63.94
64933;BME280;51446;53.850;10.662;2022-09-09T14:17:22;100894.94;;;19.83;64.37
64933;BME280;51446;53.850;10.662;2022-09-09T14:19:47;100896.72;;;19.84;64.79
64933;BME280;51446;53.850;10.662;2022-09-09T14:22:13;100885.94;;;19.90;64.60
64933;BME280;51446;53.850;10.662;2022-09-09T14:24:39;100886.91;;;19.86;65.63
64933;BME280;51446;53.850;10.662;2022-09-09T14:27:04;100883.63;;;19.72;66.31
64933;BME280;51446;53.850;10.662;2022-09-09T14:29:29;100888.22;;;19.65;66.98
64933;BME280;51446;53.850;10.662;2022-09-09T14:31:55;100891.81;;;19.61;67.56